createdAt,value
2019-02-26T00:00:02.784Z,0
2019-02-26T00:15:02.698Z,-0.6
2019-02-26T00:30:02.863Z,-0.4
2019-02-26T00:45:03.270Z,-0.4
2019-02-26T01:00:03.320Z,-0.9
2019-02-26T01:15:04.511Z,-0.4
2019-02-26T01:30:03.530Z,-0.3
2019-02-26T01:45:02.649Z,-0.4
2019-02-26T02:00:06.405Z,-1
2019-02-26T02:15:02.489Z,-0.7
2019-02-26T02:30:02.898Z,-0.9
2019-02-26T02:45:05.145Z,-1.1
2019-02-26T03:00:03.375Z,-1.1
2019-02-26T03:15:05.334Z,-0.9
2019-02-26T03:30:02.518Z,-1.4
2019-02-26T03:45:03.863Z,-1.1
2019-02-26T04:00:05.450Z,-1.7
2019-02-26T04:15:02.733Z,-1.6
2019-02-26T04:30:05.724Z,-1.3
2019-02-26T04:45:05.789Z,-1.4
2019-02-26T05:00:05.024Z,-1.2
2019-02-26T05:15:03.452Z,-1.6
2019-02-26T05:30:03.165Z,-1.2
2019-02-26T05:45:05.940Z,-1.5
2019-02-26T06:00:03.002Z,-1.2
2019-02-26T06:15:05.770Z,-1.2
2019-02-26T06:30:05.981Z,-1
2019-02-26T06:45:03.917Z,-0.6
2019-02-26T07:00:04.209Z,-0.2
2019-02-26T07:15:03.084Z,0.2
2019-02-26T07:30:02.490Z,0.6
2019-02-26T07:45:02.804Z,1.1
2019-02-26T08:00:02.497Z,2.1
2019-02-26T08:15:04.936Z,2.8
2019-02-26T08:30:02.735Z,3.7
2019-02-26T08:45:03.341Z,4.6
2019-02-26T09:00:02.733Z,5.6
2019-02-26T09:15:02.939Z,6.3
2019-02-26T09:30:03.798Z,7.2
2019-02-26T09:45:03.269Z,8.2
2019-02-26T10:00:03.217Z,9.1
2019-02-26T10:15:05.062Z,9.1
2019-02-26T10:30:05.672Z,10.2
2019-02-26T10:45:03.016Z,10.8
2019-02-26T11:00:05.397Z,11.4
2019-02-26T11:15:04.803Z,12.1
2019-02-26T11:30:04.958Z,12.1
2019-02-26T11:45:06.461Z,12.9
2019-02-26T12:00:04.431Z,13.2
2019-02-26T12:15:04.170Z,13.6
2019-02-26T12:30:02.720Z,14.2
2019-02-26T12:45:04.776Z,14.2
2019-02-26T13:00:03.210Z,14.1
2019-02-26T13:15:05.624Z,14.2
2019-02-26T13:30:02.720Z,14.2
2019-02-26T13:50:41.001Z,14.5
2019-02-26T14:00:02.584Z,14.1
2019-02-26T14:15:03.763Z,14.9
2019-02-26T14:30:03.268Z,14.2
2019-02-26T14:45:10.963Z,14.1
2019-02-26T15:00:02.718Z,13.9
2019-02-26T15:15:03.076Z,13.4
2019-02-26T15:30:03.221Z,13
2019-02-26T15:45:02.493Z,12.6
2019-02-26T16:00:06.181Z,12.2
2019-02-26T16:15:02.718Z,11.2
2019-02-26T16:30:03.221Z,10.1
2019-02-26T16:45:02.773Z,9.2
2019-02-26T17:00:03.222Z,8.6
2019-02-26T17:15:02.859Z,8.6
2019-02-26T17:30:03.029Z,8.1
2019-02-26T17:45:03.370Z,7.8
2019-02-26T18:00:02.616Z,7.4
2019-02-26T18:15:02.984Z,7.2
2019-02-26T18:30:03.298Z,7
2019-02-26T18:45:15.096Z,6.8
2019-02-26T19:00:02.667Z,6.9
2019-02-26T19:15:02.873Z,6.8
2019-02-26T19:30:04.461Z,6.8
2019-02-26T19:45:02.570Z,6.8
2019-02-26T20:00:02.671Z,6.8
2019-02-26T20:15:03.050Z,6.6
2019-02-26T20:30:03.308Z,6.6
2019-02-26T20:45:02.553Z,6.6
2019-02-26T21:00:02.941Z,6.5
2019-02-26T21:15:03.090Z,6.3
2019-02-26T21:30:02.480Z,6.2
2019-02-26T21:45:02.800Z,6.4
2019-02-26T22:00:05.335Z,6.2
2019-02-26T22:15:04.247Z,6.3
2019-02-26T22:30:02.819Z,6.2
2019-02-26T22:45:03.119Z,6.2
2019-02-26T23:00:03.376Z,6.1
2019-02-26T23:15:02.643Z,6
2019-02-26T23:30:02.961Z,5.9
2019-02-26T23:45:04.153Z,5.9
